Time;durP1;ratioP1;P1;durP2;ratioP2;P2;SDS_P1;SDS_P2;PMS_P1;PMS_P2;Temp;Humidity;BMP_temperature;BMP_pressure;BME280_temperature;BME280_humidity;BME280_pressure;Samples;Min_cycle;Max_cycle;Signal;HPM_P1;HPM_P2
2022/09/14 00:01:08;;;;;;;7.22;6.82;;;;;;;17.69;100.00;100244.09;6027108;23;20049;-74
2022/09/14 00:03:57;;;;;;;7.05;6.43;;;;;;;17.47;100.00;100215.16;6058181;23;20248;-73
2022/09/14 00:06:28;;;;;;;6.05;5.68;;;;;;;17.54;100.00;100229.56;6071577;23;20376;-75
2022/09/14 00:08:56;;;;;;;7.13;6.68;;;;;;;16.93;100.00;100156.25;6071213;23;20022;-74
2022/09/14 00:11:26;;;;;;;6.38;5.97;;;;;;;16.04;100.00;100011.19;6044397;23;20089;-74
2022/09/14 00:13:53;;;;;;;6.70;6.30;;;;;;;17.28;100.00;100210.63;6053185;23;20361;-74
2022/09/14 00:16:23;;;;;;;6.22;5.82;;;;;;;15.11;100.00;99867.41;6058410;23;20102;-73
2022/09/14 00:18:59;;;;;;;6.65;6.15;;;;;;;16.02;100.00;99996.41;6050186;23;20018;-73
2022/09/14 00:21:26;;;;;;;6.20;5.85;;;;;;;17.03;100.00;100169.53;6034243;23;20382;-73
2022/09/14 00:23:53;;;;;;;7.15;6.68;;;;;;;16.94;100.00;100139.41;6028908;23;20088;-74
2022/09/14 00:26:21;;;;;;;6.00;5.70;;;;;;;17.24;100.00;100180.91;6057990;23;20017;-72
2022/09/14 00:28:53;;;;;;;6.38;5.97;;;;;;;17.35;100.00;100190.56;6019800;23;20021;-74
2022/09/14 00:31:21;;;;;;;6.63;6.13;;;;;;;17.34;100.00;100181.78;6027938;23;20023;-74
2022/09/14 00:33:50;;;;;;;7.38;6.22;;;;;;;17.15;100.00;100126.88;6000972;23;20113;-74
2022/09/14 00:36:22;;;;;;;6.55;6.13;;;;;;;17.09;100.00;100124.75;6029037;23;20022;-74
2022/09/14 00:38:50;;;;;;;6.70;6.25;;;;;;;17.25;100.00;100137.50;6003366;23;20046;-73
2022/09/14 00:41:20;;;;;;;6.70;6.30;;;;;;;16.38;100.00;99992.34;6014322;23;20028;-73
2022/09/14 00:43:53;;;;;;;6.20;5.80;;;;;;;17.28;100.00;100144.34;6027950;23;20064;-74
2022/09/14 00:46:21;;;;;;;6.30;5.90;;;;;;;16.13;100.00;99969.81;6017390;23;20019;-74
2022/09/14 00:48:48;;;;;;;5.85;5.55;;;;;;;17.32;100.00;100172.28;6003506;23;20023;-73
2022/09/14 00:51:17;;;;;;;6.20;5.90;;;;;;;17.37;100.00;100163.91;5997827;23;20011;-74
2022/09/14 00:53:44;;;;;;;5.97;5.68;;;;;;;17.25;100.00;100123.41;6028055;23;20073;-74
2022/09/14 00:56:12;;;;;;;6.45;6.07;;;;;;;17.45;100.00;100153.44;6014268;23;20022;-75
2022/09/14 00:58:41;;;;;;;6.30;5.93;;;;;;;16.20;100.00;99957.75;6028795;23;20027;-75
2022/09/14 01:01:09;;;;;;;6.45;6.07;;;;;;;17.46;100.00;100163.06;6021619;23;20023;-73
2022/09/14 01:03:36;;;;;;;5.80;5.50;;;;;;;17.49;100.00;100150.38;6004450;23;20007;-72
2022/09/14 01:06:25;;;;;;;7.13;6.75;;;;;;;17.50;100.00;100151.19;6021219;23;20631;-75
2022/09/14 01:08:59;;;;;;;7.05;5.95;;;;;;;17.51;100.00;100155.53;6022661;23;20011;-74
2022/09/14 01:11:35;;;;;;;5.93;5.53;;;;;;;17.51;100.00;100155.53;6030560;23;20027;-73
2022/09/14 01:14:11;;;;;;;5.85;5.53;;;;;;;17.51;100.00;100156.38;6025677;23;20018;-74
2022/09/14 01:16:54;;;;;;;5.78;5.47;;;;;;;17.06;100.00;100072.03;6030035;23;20034;-73
2022/09/14 01:20:05;;;;;;;7.00;6.25;;;;;;;17.50;100.00;100143.25;6020364;23;20026;-75
2022/09/14 01:22:51;;;;;;;6.05;5.65;;;;;;;16.68;100.00;100015.28;6020461;23;20046;-77
2022/09/14 01:25:47;;;;;;;6.00;5.70;;;;;;;17.51;100.00;100151.06;5988968;23;20022;-75
2022/09/14 01:28:45;;;;;;;5.72;5.43;;;;;;;17.55;100.00;100152.47;5986306;23;20420;-74
2022/09/14 01:31:19;;;;;;;5.80;5.50;;;;;;;17.58;100.00;100150.50;6046302;23;20021;-74
2022/09/14 01:34:18;;;;;;;5.57;5.28;;;;;;;16.20;100.00;99949.78;6049573;23;20483;-75
2022/09/14 01:36:52;;;;;;;5.70;5.40;;;;;;;16.38;100.00;99980.91;6056342;23;21024;-74
2022/09/14 01:39:20;;;;;;;6.28;5.88;;;;;;;17.51;100.00;100163.50;6055395;23;20018;-74
2022/09/14 01:41:52;;;;;;;6.10;5.80;;;;;;;17.54;100.00;100155.28;6041667;23;20052;-75
2022/09/14 01:44:24;;;;;;;6.25;5.85;;;;;;;17.51;100.00;100155.53;6043244;23;20060;-75
2022/09/14 01:47:01;;;;;;;6.68;6.30;;;;;;;16.91;100.00;100074.22;6032070;23;20440;-73
2022/09/14 01:49:39;;;;;;;5.70;5.40;;;;;;;17.30;100.00;100153.03;6036221;23;20026;-75
2022/09/14 01:52:25;;;;;;;6.88;6.50;;;;;;;17.21;100.00;100151.19;6053343;23;20046;-74
2022/09/14 01:55:00;;;;;;;7.22;6.72;;;;;;;17.31;100.00;100157.34;6031747;23;20068;-75
2022/09/14 01:57:35;;;;;;;6.10;5.70;;;;;;;16.91;100.00;100081.34;6045646;23;20038;-73
2022/09/14 02:00:11;;;;;;;7.05;6.65;;;;;;;17.07;100.00;100108.16;6016292;23;20018;-76
2022/09/14 02:02:43;;;;;;;6.20;5.80;;;;;;;17.05;100.00;100102.16;6005341;23;20035;-73
2022/09/14 02:05:45;;;;;;;6.07;5.78;;;;;;;17.30;100.00;100140.59;6055866;23;20023;-73
2022/09/14 02:08:12;;;;;;;8.38;6.38;;;;;;;16.52;100.00;100028.22;5926307;23;20022;-76
2022/09/14 02:10:39;;;;;;;5.90;5.60;;;;;;;17.04;100.00;100108.44;6030582;23;20034;-74
2022/09/14 02:13:07;;;;;;;6.72;6.32;;;;;;;15.97;100.00;99937.72;6037427;23;20026;-73
2022/09/14 02:15:35;;;;;;;6.00;5.70;;;;;;;17.02;100.00;100117.47;6048711;23;20006;-73
2022/09/14 02:18:03;;;;;;;7.25;6.82;;;;;;;15.75;100.00;99943.09;6053518;23;20018;-74
2022/09/14 02:20:42;;;;;;;6.40;5.90;;;;;;;17.05;100.00;100139.25;6054392;23;20034;-72
2022/09/14 02:23:09;;;;;;;6.20;5.90;;;;;;;16.80;100.00;100119.38;6047727;23;20073;-75
2022/09/14 02:25:36;;;;;;;5.70;5.40;;;;;;;15.18;100.00;99824.59;6036860;23;20493;-76
2022/09/14 02:28:04;;;;;;;8.02;7.53;;;;;;;16.20;100.00;100031.03;6001697;23;20036;-74
2022/09/14 02:30:38;;;;;;;6.82;5.72;;;;;;;16.80;100.00;100114.06;6059015;23;20088;-72
2022/09/14 02:33:15;;;;;;;7.90;7.10;;;;;;;16.79;100.00;100116.84;6043868;23;20106;-75
2022/09/14 02:35:53;;;;;;;6.43;6.00;;;;;;;15.45;100.00;99920.03;6057068;23;20089;-75
2022/09/14 02:38:37;;;;;;;5.90;5.60;;;;;;;16.81;100.00;100123.72;6018764;23;20010;-75
2022/09/14 02:41:45;;;;;;;7.43;7.03;;;;;;;16.79;100.00;100111.53;6056327;23;20072;-75
2022/09/14 02:44:25;;;;;;;6.72;6.00;;;;;;;16.80;100.00;100113.22;6014540;23;20078;-75
2022/09/14 02:47:01;;;;;;;6.63;6.22;;;;;;;16.79;100.00;100106.25;6066449;23;20084;-76
2022/09/14 02:49:55;;;;;;;5.50;5.20;;;;;;;16.80;100.00;100100.81;6060182;23;20026;-74
2022/09/14 02:52:29;;;;;;;5.72;5.43;;;;;;;15.50;100.00;99901.97;6050300;23;20030;-74
2022/09/14 02:55:06;;;;;;;6.97;6.57;;;;;;;16.82;100.00;100095.38;6031894;23;20073;-75
2022/09/14 02:58:04;;;;;;;6.03;5.68;;;;;;;16.75;100.00;100087.13;6038706;23;20027;-74
2022/09/14 03:00:35;;;;;;;6.22;5.82;;;;;;;16.61;100.00;100085.69;6047120;23;20610;-73
2022/09/14 03:03:06;;;;;;;7.03;6.63;;;;;;;16.44;100.00;100059.84;6060319;23;20085;-75
2022/09/14 03:05:33;;;;;;;6.38;5.97;;;;;;;16.58;100.00;100075.38;6017569;23;20019;-72
2022/09/14 03:08:01;;;;;;;7.28;6.68;;;;;;;16.65;100.00;100073.00;6051964;23;20075;-74
2022/09/14 03:10:29;;;;;;;6.53;6.05;;;;;;;16.25;100.00;100011.09;6041051;23;20038;-72
2022/09/14 03:12:57;;;;;;;7.20;6.80;;;;;;;16.48;100.00;100045.38;6051992;23;20022;-74
2022/09/14 03:15:24;;;;;;;6.30;5.90;;;;;;;16.38;100.00;100042.66;6045320;23;20041;-74
2022/09/14 03:17:51;;;;;;;6.40;6.00;;;;;;;16.31;100.00;100026.47;6037907;23;20152;-73
2022/09/14 03:20:23;;;;;;;6.68;6.20;;;;;;;16.37;100.00;100077.22;6038521;23;20026;-72
2022/09/14 03:22:50;;;;;;;6.65;6.15;;;;;;;16.15;100.00;100034.88;6048545;23;20014;-73
2022/09/14 03:25:18;;;;;;;6.00;5.70;;;;;;;16.33;100.00;100058.94;6048337;23;20026;-73
2022/09/14 03:27:49;;;;;;;6.97;6.20;;;;;;;16.14;100.00;100027.94;6057699;23;20017;-73
2022/09/14 03:30:17;;;;;;;6.60;6.10;;;;;;;14.28;100.00;99707.09;6059371;23;20038;-74
2022/09/14 03:32:44;;;;;;;6.43;6.03;;;;;;;16.36;100.00;100049.91;6050942;23;20663;-73
2022/09/14 03:35:11;;;;;;;7.18;6.78;;;;;;;16.11;100.00;100032.66;6048953;23;20073;-74
2022/09/14 03:37:39;;;;;;;6.32;5.93;;;;;;;15.14;100.00;99872.41;6050100;23;20585;-73
2022/09/14 03:40:07;;;;;;;8.38;7.60;;;;;;;15.92;100.00;99983.94;6022725;23;20396;-73
2022/09/14 03:42:34;;;;;;;6.05;5.65;;;;;;;16.07;100.00;100025.94;6058147;23;20471;-75
2022/09/14 03:45:01;;;;;;;6.90;6.50;;;;;;;16.32;100.00;100064.38;6026876;23;20071;-74
2022/09/14 03:47:28;;;;;;;7.05;6.40;;;;;;;15.86;100.00;99951.91;6063839;23;20022;-74
2022/09/14 03:49:54;;;;;;;7.40;6.97;;;;;;;15.94;100.00;99979.38;6063397;23;20022;-71
2022/09/14 03:52:21;;;;;;;7.32;6.72;;;;;;;16.30;100.00;100037.22;6010636;23;20056;-72
2022/09/14 03:54:50;;;;;;;6.00;5.60;;;;;;;15.07;100.00;99871.25;6032389;23;20013;-76
2022/09/14 03:57:17;;;;;;;6.30;5.90;;;;;;;16.35;100.00;100035.81;6057785;23;20072;-75
2022/09/14 03:59:43;;;;;;;6.35;5.85;;;;;;;16.33;100.00;100039.56;6032248;23;20006;-73
2022/09/14 04:02:13;;;;;;;6.45;6.15;;;;;;;15.45;100.00;99906.81;6057840;23;20467;-73
2022/09/14 04:04:39;;;;;;;6.53;6.10;;;;;;;16.19;100.00;100035.47;6068475;23;20010;-75
2022/09/14 04:07:06;;;;;;;6.32;5.95;;;;;;;16.17;100.00;100036.59;6015697;23;20034;-75
2022/09/14 04:09:32;;;;;;;6.10;5.70;;;;;;;16.16;100.00;100027.81;6035962;23;20021;-74
2022/09/14 04:11:59;;;;;;;7.60;7.00;;;;;;;16.04;100.00;100010.34;6058232;23;20097;-72
2022/09/14 04:14:45;;;;;;;6.13;5.72;;;;;;;16.19;100.00;100019.59;6057999;23;20029;-75
2022/09/14 04:17:12;;;;;;;7.00;6.50;;;;;;;16.23;100.00;100023.63;6058879;23;20018;-76
2022/09/14 04:19:39;;;;;;;6.50;6.07;;;;;;;14.67;100.00;99779.53;6027490;23;20100;-73
2022/09/14 04:22:32;;;;;;;5.93;5.63;;;;;;;14.95;100.00;99822.09;6054906;23;20034;-74
2022/09/14 04:25:22;;;;;;;7.20;6.75;;;;;;;16.07;100.00;100020.66;6059477;23;20034;-74
2022/09/14 04:27:49;;;;;;;5.75;5.45;;;;;;;16.10;100.00;100015.94;6050194;23;20384;-74
2022/09/14 04:30:36;;;;;;;5.53;5.22;;;;;;;16.13;100.00;100014.81;6057001;23;20030;-75
2022/09/14 04:33:02;;;;;;;7.45;6.95;;;;;;;15.54;100.00;99921.06;6067010;23;20079;-75
2022/09/14 04:35:29;;;;;;;6.00;5.60;;;;;;;16.10;100.00;100018.59;6064474;23;20011;-74
2022/09/14 04:37:55;;;;;;;6.72;6.32;;;;;;;15.95;100.00;99991.59;6050912;23;20023;-73
2022/09/14 04:40:21;;;;;;;6.45;5.97;;;;;;;15.05;100.00;99864.44;6029822;23;20096;-74
2022/09/14 04:42:48;;;;;;;5.88;5.57;;;;;;;15.19;100.00;99898.44;6059315;23;20054;-73
2022/09/14 04:45:15;;;;;;;6.57;6.07;;;;;;;15.74;100.00;99973.13;6026789;23;20026;-73
2022/09/14 04:47:41;;;;;;;9.52;6.18;;;;;;;16.02;100.00;100023.69;6055234;23;20084;-74
2022/09/14 04:50:08;;;;;;;5.88;5.57;;;;;;;15.84;100.00;99978.47;6042210;23;20026;-74
2022/09/14 04:52:36;;;;;;;6.22;5.82;;;;;;;14.09;100.00;99700.72;6049420;23;20252;-73
2022/09/14 04:55:02;;;;;;;7.38;6.97;;;;;;;14.72;100.00;99801.09;6074178;23;20022;-75
2022/09/14 04:57:30;;;;;;;6.15;5.75;;;;;;;14.44;100.00;99762.94;6060459;23;20171;-73
2022/09/14 04:59:56;;;;;;;9.23;8.52;;;;;;;15.43;100.00;99932.56;6052970;23;20022;-74
2022/09/14 05:02:22;;;;;;;6.82;6.40;;;;;;;15.72;100.00;99990.09;6055075;23;20025;-71
2022/09/14 05:04:49;;;;;;;8.13;6.80;;;;;;;15.93;100.00;100004.13;6049001;23;20014;-73
2022/09/14 05:07:16;;;;;;;7.10;6.60;;;;;;;15.92;100.00;100010.41;6056902;23;20471;-72
2022/09/14 05:09:42;;;;;;;7.05;6.55;;;;;;;14.73;100.00;99812.50;6030191;23;20009;-71
2022/09/14 05:12:08;;;;;;;7.93;7.22;;;;;;;15.36;100.00;99923.47;6056759;23;20042;-71
2022/09/14 05:14:36;;;;;;;7.35;6.75;;;;;;;15.67;100.00;99979.88;6036325;23;20105;-72
2022/09/14 05:17:03;;;;;;;9.02;8.43;;;;;;;15.66;100.00;99985.31;6048135;23;20111;-72
2022/09/14 05:19:30;;;;;;;7.10;6.60;;;;;;;15.36;100.00;99934.88;6046333;23;20375;-69
2022/09/14 05:21:56;;;;;;;8.23;7.43;;;;;;;15.60;100.00;99983.19;6029065;23;20014;-70
2022/09/14 05:24:22;;;;;;;7.50;6.90;;;;;;;14.29;100.00;99833.66;6068863;23;20026;-72
2022/09/14 05:26:51;;;;;;;7.93;7.20;;;;;;;15.53;100.00;99991.63;6058741;23;20010;-71
2022/09/14 05:29:18;;;;;;;7.30;6.80;;;;;;;15.46;100.00;99985.19;6033457;23;20611;-68
2022/09/14 05:31:44;;;;;;;7.07;6.63;;;;;;;15.54;100.00;99990.66;6016506;23;20492;-71
2022/09/14 05:34:12;;;;;;;7.53;6.93;;;;;;;15.50;100.00;99973.38;6028046;23;20018;-70
2022/09/14 05:36:39;;;;;;;6.70;6.20;;;;;;;15.56;100.00;100017.81;6019243;23;20015;-70
2022/09/14 05:39:06;;;;;;;8.65;8.05;;;;;;;15.55;100.00;99987.06;6018377;23;20083;-71
2022/09/14 05:41:33;;;;;;;7.65;6.25;;;;;;;15.16;100.00;99909.31;6029344;23;20030;-69
2022/09/14 05:43:59;;;;;;;8.32;7.65;;;;;;;15.56;100.00;99983.44;6019769;23;20049;-72
2022/09/14 05:46:25;;;;;;;7.60;6.82;;;;;;;14.90;100.00;99892.97;6026575;23;20026;-72
2022/09/14 05:48:52;;;;;;;7.85;6.75;;;;;;;15.03;100.00;99898.06;6019552;23;20565;-71
2022/09/14 05:51:21;;;;;;;7.10;6.57;;;;;;;15.48;100.00;99983.25;6028502;23;20031;-69
2022/09/14 05:53:50;;;;;;;7.30;6.80;;;;;;;15.45;100.00;99982.66;5997942;23;20885;-71
2022/09/14 05:56:18;;;;;;;7.30;6.80;;;;;;;15.21;100.00;99959.13;6022202;23;20042;-72
2022/09/14 05:58:44;;;;;;;6.55;6.15;;;;;;;15.31;100.00;99975.88;6001885;23;20014;-72
2022/09/14 06:01:13;;;;;;;7.35;6.75;;;;;;;15.30;100.00;99988.28;6018879;23;20023;-71
2022/09/14 06:03:40;;;;;;;6.95;6.32;;;;;;;14.07;100.00;99809.97;6017956;23;20027;-70
2022/09/14 06:06:09;;;;;;;10.43;8.02;;;;;;;15.25;100.00;99992.25;6003445;23;20077;-71
2022/09/14 06:08:36;;;;;;;7.93;7.22;;;;;;;13.90;100.00;99777.06;6033268;23;20022;-70
2022/09/14 06:11:08;;;;;;;7.53;7.03;;;;;;;14.43;100.00;99860.72;6018026;23;20019;-71
2022/09/14 06:13:35;;;;;;;6.03;5.68;;;;;;;13.83;100.00;99774.09;6015659;23;20030;-68
2022/09/14 06:16:03;;;;;;;6.20;5.80;;;;;;;15.06;100.00;99977.94;6019067;23;20405;-72
2022/09/14 06:18:31;;;;;;;7.30;6.35;;;;;;;15.21;100.00;100001.41;6030443;23;20031;-73
2022/09/14 06:20:58;;;;;;;8.90;7.95;;;;;;;13.80;100.00;99770.84;6019770;23;20093;-73
2022/09/14 06:23:26;;;;;;;6.97;6.25;;;;;;;15.04;100.00;99984.31;6023856;23;20538;-72
2022/09/14 06:25:54;;;;;;;7.97;7.38;;;;;;;15.13;100.00;100000.25;6010906;23;20031;-70
2022/09/14 06:28:22;;;;;;;6.63;6.22;;;;;;;15.14;100.00;100001.09;6016521;23;20038;-70
2022/09/14 06:30:49;;;;;;;9.25;6.35;;;;;;;13.86;100.00;99813.38;6043985;23;20062;-70
2022/09/14 06:33:16;;;;;;;6.43;6.03;;;;;;;15.10;100.00;100007.59;6025369;23;20018;-70
2022/09/14 06:35:45;;;;;;;7.38;6.78;;;;;;;13.79;100.00;99791.13;6050260;23;20663;-68
2022/09/14 06:38:13;;;;;;;7.90;7.20;;;;;;;14.95;100.00;99988.53;6002916;23;20644;-69
2022/09/14 06:40:59;;;;;;;10.48;6.45;;;;;;;15.04;100.00;99995.72;6054883;23;20105;-73
2022/09/14 06:43:29;;;;;;;7.32;6.63;;;;;;;14.98;100.00;99998.88;6045387;23;20049;-71
2022/09/14 06:46:06;;;;;;;7.88;7.38;;;;;;;14.95;100.00;99991.19;6006745;23;20046;-71
2022/09/14 06:48:38;;;;;;;9.07;6.15;;;;;;;14.98;100.00;99996.22;6052781;23;20025;-70
2022/09/14 06:51:29;;;;;;;10.57;7.87;;;;;;;14.92;100.00;99989.63;6056188;23;20622;-70
2022/09/14 06:54:00;;;;;;;6.97;6.57;;;;;;;14.95;100.00;99993.81;5979386;23;20053;-71
2022/09/14 06:56:30;;;;;;;8.25;6.68;;;;;;;13.63;100.00;99788.00;6048730;23;20038;-68
2022/09/14 06:58:57;;;;;;;7.20;6.70;;;;;;;14.92;100.00;99996.72;6028383;23;20034;-70
2022/09/14 07:01:25;;;;;;;6.93;6.32;;;;;;;13.39;100.00;99753.88;6038078;23;20091;-70
2022/09/14 07:03:53;;;;;;;7.85;7.18;;;;;;;13.69;100.00;99814.75;6000103;23;20021;-69
2022/09/14 07:06:25;;;;;;;6.95;6.50;;;;;;;14.71;100.00;99962.31;6035970;23;20045;-73
2022/09/14 07:08:53;;;;;;;6.93;6.53;;;;;;;14.84;100.00;99999.16;5996788;23;20647;-73
2022/09/14 07:11:24;;;;;;;5.63;5.32;;;;;;;14.82;100.00;99999.28;6052668;23;20556;-69
2022/09/14 07:13:53;;;;;;;6.15;5.82;;;;;;;14.82;100.00;99999.28;6016963;23;20678;-70
2022/09/14 07:16:20;;;;;;;6.10;5.50;;;;;;;14.86;100.00;99989.31;6050004;23;20018;-71
2022/09/14 07:18:46;;;;;;;6.18;5.85;;;;;;;14.90;100.00;99988.94;6021631;23;20041;-70
2022/09/14 07:21:16;;;;;;;6.90;5.32;;;;;;;14.60;100.00;99922.75;6028905;23;20023;-69
2022/09/14 07:23:45;;;;;;;6.90;5.88;;;;;;;15.04;100.00;99979.88;6021006;23;20035;-69
2022/09/14 07:26:17;;;;;;;5.90;5.60;;;;;;;15.04;100.00;99979.88;6052762;23;20097;-72
2022/09/14 07:28:46;;;;;;;5.72;5.40;;;;;;;14.94;100.00;99957.81;6025781;23;20041;-70
2022/09/14 07:31:22;;;;;;;6.28;5.95;;;;;;;15.12;100.00;99985.34;6051754;23;21586;-70
2022/09/14 07:33:52;;;;;;;9.73;5.65;;;;;;;15.11;100.00;99982.84;6051779;23;20621;-74
2022/09/14 07:36:20;;;;;;;5.40;5.10;;;;;;;15.00;100.00;99978.44;6066858;23;20017;-69
2022/09/14 07:38:47;;;;;;;6.32;5.93;;;;;;;13.82;100.00;99785.59;6060527;23;20053;-70
2022/09/14 07:41:20;;;;;;;10.73;5.57;;;;;;;14.53;100.00;99904.75;6070023;23;20030;-70
2022/09/14 07:43:50;;;;;;;6.28;5.88;;;;;;;13.63;100.00;99745.81;6044497;23;20053;-71
2022/09/14 07:46:18;;;;;;;7.57;7.07;;;;;;;15.00;100.00;99973.16;6042506;23;20051;-70
2022/09/14 07:48:45;;;;;;;5.80;5.50;;;;;;;15.07;100.00;99982.25;6030106;23;20014;-70
2022/09/14 07:51:12;;;;;;;6.47;5.85;;;;;;;15.03;100.00;99964.13;6046720;23;20173;-70
2022/09/14 07:53:41;;;;;;;6.28;5.88;;;;;;;15.07;100.00;99969.03;6048089;23;20030;-69
2022/09/14 07:56:10;;;;;;;6.63;6.07;;;;;;;14.08;100.00;99824.84;6069732;23;20024;-71
2022/09/14 07:58:36;;;;;;;6.35;5.85;;;;;;;15.05;100.00;99968.31;6033997;23;20253;-70
2022/09/14 08:01:10;;;;;;;8.05;7.45;;;;;;;15.04;100.00;99969.31;6033238;23;20029;-72
2022/09/14 08:03:40;;;;;;;5.70;5.40;;;;;;;14.06;100.00;99826.78;6042841;23;20028;-70
2022/09/14 08:06:10;;;;;;;6.43;6.10;;;;;;;14.92;100.00;99976.44;6036786;23;20383;-71
2022/09/14 08:08:40;;;;;;;6.35;5.80;;;;;;;14.99;100.00;99970.63;6058043;23;20614;-73
2022/09/14 08:11:15;;;;;;;5.80;5.50;;;;;;;14.81;100.00;99959.78;6058462;23;20022;-71
2022/09/14 08:13:44;;;;;;;5.45;5.15;;;;;;;14.49;100.00;99913.88;6018685;23;20035;-70
2022/09/14 08:16:12;;;;;;;6.47;6.07;;;;;;;14.84;100.00;99972.75;6018011;23;20506;-68
2022/09/14 08:18:39;;;;;;;5.55;5.15;;;;;;;14.36;100.00;99937.78;6043849;23;20486;-69
2022/09/14 08:21:08;;;;;;;7.57;6.97;;;;;;;14.40;100.00;99911.16;6050133;23;20030;-70
2022/09/14 08:23:39;;;;;;;6.10;5.68;;;;;;;14.73;100.00;99974.47;6020057;23;20072;-69
2022/09/14 08:26:11;;;;;;;6.85;6.40;;;;;;;14.58;100.00;99951.09;6054500;23;20092;-71
2022/09/14 08:28:37;;;;;;;5.88;5.57;;;;;;;14.71;100.00;99967.59;6049437;23;20019;-72
2022/09/14 08:31:12;;;;;;;7.35;6.88;;;;;;;14.67;100.00;99972.31;6052870;23;20486;-70
2022/09/14 08:33:41;;;;;;;6.97;6.28;;;;;;;14.68;100.00;99960.78;6046752;23;20649;-72
2022/09/14 08:36:09;;;;;;;6.63;6.32;;;;;;;14.70;100.00;99956.22;6057639;23;20034;-72
2022/09/14 08:38:36;;;;;;;6.05;5.50;;;;;;;13.32;100.00;99735.09;6046193;23;20026;-70
2022/09/14 08:41:29;;;;;;;7.25;6.75;;;;;;;14.72;100.00;99954.28;6051771;23;20496;-73
2022/09/14 08:44:19;;;;;;;6.88;6.55;;;;;;;14.70;100.00;99955.38;6037537;23;20046;-73
2022/09/14 08:46:57;;;;;;;5.88;5.47;;;;;;;14.59;100.00;99947.47;6027146;23;20026;-73
2022/09/14 08:49:58;;;;;;;5.90;5.60;;;;;;;14.58;100.00;99938.72;6031431;23;20038;-72
2022/09/14 08:52:30;;;;;;;6.00;5.70;;;;;;;14.77;100.00;99961.81;6046250;23;20029;-70
2022/09/14 08:54:59;;;;;;;7.23;6.63;;;;;;;14.83;100.00;99960.47;6048629;23;20641;-72
2022/09/14 08:57:45;;;;;;;5.60;5.30;;;;;;;14.86;100.00;99968.19;6056761;23;20072;-74
2022/09/14 09:00:15;;;;;;;6.47;6.18;;;;;;;14.68;100.00;99937.00;6043212;23;20119;-70
2022/09/14 09:02:51;;;;;;;5.57;5.28;;;;;;;14.93;100.00;99958.75;6016151;23;20114;-71
2022/09/14 09:05:55;;;;;;;5.78;5.47;;;;;;;14.98;100.00;99955.75;6038240;23;20031;-72
2022/09/14 09:08:43;;;;;;;6.13;5.72;;;;;;;15.03;100.00;99954.41;6035021;23;20026;-73
2022/09/14 09:11:18;;;;;;;7.55;5.53;;;;;;;14.90;100.00;99936.09;6038458;23;20022;-74
2022/09/14 09:13:54;;;;;;;6.75;6.25;;;;;;;13.55;100.00;99712.16;6036374;23;20045;-74
2022/09/14 09:16:23;;;;;;;5.70;5.32;;;;;;;15.14;100.00;99978.13;6026273;23;20017;-74
2022/09/14 09:18:57;;;;;;;5.93;5.53;;;;;;;15.05;100.00;99970.13;6004299;23;20018;-72
2022/09/14 09:21:30;;;;;;;7.43;5.63;;;;;;;14.02;100.00;99797.16;6060589;23;20536;-72
2022/09/14 09:24:50;;;;;;;7.63;7.13;;;;;;;15.08;100.00;99970.72;6044428;23;20076;-72
2022/09/14 09:27:16;;;;;;;5.78;5.47;;;;;;;15.05;100.00;99955.09;5945637;23;20888;-73
2022/09/14 09:29:43;;;;;;;5.72;5.43;;;;;;;15.19;100.00;99972.47;6005209;23;20019;-70
2022/09/14 09:32:15;;;;;;;6.88;6.47;;;;;;;14.92;100.00;99938.59;6033691;23;20491;-70
2022/09/14 09:34:42;;;;;;;13.35;12.20;;;;;;;14.28;100.00;99847.00;6035467;23;20075;-71
2022/09/14 09:37:21;;;;;;;6.93;6.53;;;;;;;15.21;100.00;99973.16;5964949;23;20018;-70
2022/09/14 09:39:48;;;;;;;5.78;5.47;;;;;;;15.03;100.00;99935.91;6019834;23;20077;-72
2022/09/14 09:42:21;;;;;;;6.28;5.78;;;;;;;15.18;100.00;99964.69;6050565;23;20034;-71
2022/09/14 09:44:54;;;;;;;6.10;5.70;;;;;;;15.22;100.00;99955.53;6045682;23;20014;-71
2022/09/14 09:47:39;;;;;;;5.45;5.05;;;;;;;13.90;100.00;99738.31;6058382;23;20052;-69
2022/09/14 09:50:19;;;;;;;6.85;6.53;;;;;;;15.12;100.00;99947.53;6035799;23;20088;-73
2022/09/14 09:52:54;;;;;;;5.95;5.55;;;;;;;13.33;100.00;99678.78;6059659;23;20011;-71
2022/09/14 09:55:25;;;;;;;5.88;5.57;;;;;;;14.95;100.00;99957.69;6035860;23;20034;-73
2022/09/14 09:57:53;;;;;;;6.43;5.97;;;;;;;14.82;100.00;99938.53;6043147;23;20033;-70
2022/09/14 10:00:23;;;;;;;5.88;5.55;;;;;;;15.02;100.00;99973.88;6043192;23;20613;-73
2022/09/14 10:02:50;;;;;;;5.88;5.57;;;;;;;14.93;100.00;99993.09;6031338;23;20019;-71
2022/09/14 10:05:16;;;;;;;5.68;5.30;;;;;;;15.06;100.00;99970.00;6048883;23;20535;-72
2022/09/14 10:07:49;;;;;;;6.70;6.03;;;;;;;15.03;100.00;99972.06;6033653;23;20056;-71
2022/09/14 10:10:19;;;;;;;5.93;5.63;;;;;;;15.07;100.00;99970.84;6040298;23;20085;-71
2022/09/14 10:12:48;;;;;;;5.60;5.30;;;;;;;14.96;100.00;99972.56;6032728;23;20026;-74
2022/09/14 10:15:30;;;;;;;6.50;6.00;;;;;;;14.99;100.00;99982.03;6047066;23;20110;-73
2022/09/14 10:18:12;;;;;;;6.93;6.53;;;;;;;15.05;100.00;99970.13;6057747;23;20014;-75
2022/09/14 10:20:42;;;;;;;5.93;5.53;;;;;;;14.89;100.00;99946.78;6046459;23;20524;-73
2022/09/14 10:23:30;;;;;;;6.90;6.50;;;;;;;15.04;100.00;99934.94;6066810;23;20088;-70
2022/09/14 10:26:12;;;;;;;6.60;6.20;;;;;;;15.11;100.00;99935.25;6045693;23;20022;-69
2022/09/14 10:28:41;;;;;;;5.70;5.40;;;;;;;15.03;100.00;99941.19;6059343;23;20030;-73
2022/09/14 10:31:14;;;;;;;6.78;6.28;;;;;;;15.06;100.00;99940.94;6060291;23;20161;-74
2022/09/14 10:33:41;;;;;;;5.75;5.40;;;;;;;14.75;100.00;99882.72;6043887;23;20085;-72
2022/09/14 10:36:24;;;;;;;7.28;6.70;;;;;;;14.91;100.00;99924.56;6053090;23;20705;-73
2022/09/14 10:38:57;;;;;;;8.10;7.40;;;;;;;13.53;100.00;99707.03;6020154;23;20019;-71
2022/09/14 10:41:48;;;;;;;6.72;6.32;;;;;;;14.92;100.00;99910.38;6021884;23;20491;-71
2022/09/14 10:44:38;;;;;;;5.72;5.43;;;;;;;14.90;100.00;99924.69;6000117;23;20097;-73
2022/09/14 10:47:23;;;;;;;6.70;6.38;;;;;;;14.92;100.00;99928.88;6028125;23;20092;-72
2022/09/14 10:50:01;;;;;;;6.38;5.97;;;;;;;14.80;100.00;99947.53;6028689;23;20042;-75
2022/09/14 10:52:46;;;;;;;6.30;5.90;;;;;;;14.86;100.00;99947.03;6043475;23;20022;-71
2022/09/14 10:55:35;;;;;;;14.88;6.18;;;;;;;14.87;100.00;99954.81;6073904;23;20034;-72
2022/09/14 10:58:19;;;;;;;6.53;6.20;;;;;;;14.87;100.00;99946.06;6062649;23;20022;-70
2022/09/14 11:00:55;;;;;;;6.30;5.88;;;;;;;14.89;100.00;99946.78;6031090;23;20519;-71
2022/09/14 11:03:53;;;;;;;6.22;5.82;;;;;;;13.91;100.00;99789.25;6038593;23;20029;-74
2022/09/14 11:06:27;;;;;;;5.40;5.10;;;;;;;14.98;100.00;99930.16;6056275;23;20079;-70
2022/09/14 11:09:21;;;;;;;7.47;6.97;;;;;;;15.16;100.00;99928.63;6030509;23;20711;-71
2022/09/14 11:11:53;;;;;;;6.15;5.75;;;;;;;15.23;100.00;99920.19;6054659;23;20026;-71
2022/09/14 11:14:37;;;;;;;6.18;5.68;;;;;;;15.31;100.00;99917.72;6028847;23;20022;-73
2022/09/14 11:17:32;;;;;;;8.10;7.40;;;;;;;15.29;100.00;99911.75;6045490;23;20018;-72
2022/09/14 11:20:19;;;;;;;7.03;6.63;;;;;;;15.24;100.00;99900.72;6040304;23;20018;-72
2022/09/14 11:22:56;;;;;;;5.70;5.32;;;;;;;15.32;100.00;99895.63;6061649;23;20030;-72
2022/09/14 11:25:28;;;;;;;5.70;5.40;;;;;;;15.51;100.00;99901.00;6044129;23;20099;-73
2022/09/14 11:28:07;;;;;;;6.78;6.35;;;;;;;14.21;100.00;99695.38;6050902;23;20018;-70
2022/09/14 11:30:55;;;;;;;5.68;5.38;;;;;;;15.61;100.00;99905.50;6070412;23;20050;-71
2022/09/14 11:33:37;;;;;;;6.03;5.63;;;;;;;15.82;100.00;99901.06;6052767;23;20019;-70
2022/09/14 11:36:25;;;;;;;7.70;7.30;;;;;;;14.32;100.00;99697.97;5985268;23;20053;-71
2022/09/14 11:39:00;;;;;;;6.15;5.65;;;;;;;15.60;100.00;99909.16;6048924;23;20038;-71
2022/09/14 11:41:46;;;;;;;5.80;5.43;;;;;;;15.39;100.00;99877.44;6040405;23;20022;-70
2022/09/14 11:44:21;;;;;;;6.68;5.82;;;;;;;14.23;100.00;99698.72;6043509;23;20023;-72
2022/09/14 11:46:55;;;;;;;6.78;6.18;;;;;;;15.39;100.00;99912.63;6046192;23;20335;-71
2022/09/14 11:49:51;;;;;;;6.78;6.28;;;;;;;15.37;100.00;99914.56;6041045;23;20089;-70